createdAt,value
2022-11-08T00:00:12.770Z,90.64
2022-11-08T00:02:39.388Z,90.90
2022-11-08T00:05:24.685Z,91.32
2022-11-08T00:08:09.771Z,91.60
2022-11-08T00:10:54.867Z,91.87
2022-11-08T00:13:39.754Z,91.47
2022-11-08T00:16:06.352Z,91.53
2022-11-08T00:18:32.783Z,91.66
2022-11-08T00:21:03.339Z,91.64
2022-11-08T00:23:30.045Z,91.88
2022-11-08T00:25:56.606Z,92.06
2022-11-08T00:28:23.109Z,92.41
2022-11-08T00:30:49.541Z,92.35
2022-11-08T00:33:16.031Z,92.49
2022-11-08T00:35:42.716Z,92.54
2022-11-08T00:38:09.164Z,93.05
2022-11-08T00:40:35.590Z,92.93
2022-11-08T00:43:02.065Z,92.82
2022-11-08T00:45:28.501Z,93.28
2022-11-08T00:47:54.928Z,93.41
2022-11-08T00:50:21.380Z,93.56
2022-11-08T00:52:47.786Z,93.39
2022-11-08T00:55:14.248Z,93.67
2022-11-08T00:57:58.292Z,93.63
2022-11-08T01:00:25.694Z,93.83
2022-11-08T01:03:12.143Z,93.82
2022-11-08T01:05:38.627Z,93.87
2022-11-08T01:08:05.160Z,94.17
2022-11-08T01:10:31.640Z,94.55
2022-11-08T01:12:58.139Z,94.49
2022-11-08T01:15:24.623Z,94.08
2022-11-08T01:17:51.047Z,94.33
2022-11-08T01:20:17.470Z,94.31
2022-11-08T01:22:43.939Z,94.40
2022-11-08T01:25:10.400Z,94.62
2022-11-08T01:27:36.797Z,95.04
2022-11-08T01:30:03.666Z,94.71
2022-11-08T01:32:30.087Z,94.85
2022-11-08T01:34:56.495Z,94.77
2022-11-08T01:37:22.968Z,95.09
2022-11-08T01:39:49.509Z,94.75
2022-11-08T01:42:15.953Z,95.25
2022-11-08T01:45:05.770Z,95.42
2022-11-08T01:47:32.397Z,95.08
2022-11-08T01:50:05.826Z,95.06
2022-11-08T01:52:39.834Z,95.96
2022-11-08T01:55:26.309Z,95.68
2022-11-08T01:58:11.113Z,95.67
2022-11-08T02:00:39.453Z,96.06
2022-11-08T02:03:10.271Z,95.90
2022-11-08T02:05:37.139Z,96.05
2022-11-08T02:08:09.561Z,96.15
2022-11-08T02:10:42.557Z,95.79
2022-11-08T02:13:15.058Z,96.02
2022-11-08T02:15:42.865Z,96.42
2022-11-08T02:18:10.093Z,96.24
2022-11-08T02:20:36.965Z,96.17
2022-11-08T02:23:10.338Z,96.63
2022-11-08T02:25:36.797Z,96.53
2022-11-08T02:28:03.530Z,96.88
2022-11-08T02:30:34.892Z,96.82
2022-11-08T02:33:20.362Z,96.71
2022-11-08T02:35:49.945Z,96.38
2022-11-08T02:38:17.736Z,96.37
2022-11-08T02:40:55.168Z,97.00
2022-11-08T02:43:23.712Z,97.00
2022-11-08T02:45:51.066Z,97.00
2022-11-08T02:48:19.244Z,96.46
2022-11-08T02:50:46.837Z,96.48
2022-11-08T02:53:13.575Z,96.54
2022-11-08T02:55:40.100Z,97.09
2022-11-08T02:58:06.618Z,97.05
2022-11-08T03:00:33.267Z,96.70
2022-11-08T03:02:59.865Z,96.27
2022-11-08T03:05:27.863Z,96.82
2022-11-08T03:07:55.293Z,97.10
2022-11-08T03:10:23.571Z,96.70
2022-11-08T03:13:01.617Z,96.60
2022-11-08T03:15:29.085Z,97.14
2022-11-08T03:17:56.288Z,97.24
2022-11-08T03:20:25.288Z,96.84
2022-11-08T03:23:02.569Z,96.99
2022-11-08T03:25:29.737Z,97.25
2022-11-08T03:27:56.456Z,96.90
2022-11-08T03:30:22.987Z,96.72
2022-11-08T03:32:52.838Z,96.66
2022-11-08T03:35:19.239Z,96.42
2022-11-08T03:37:53.516Z,96.67
2022-11-08T03:40:20.949Z,96.94
2022-11-08T03:42:47.660Z,96.59
2022-11-08T03:45:15.137Z,96.42
2022-11-08T03:47:46.605Z,96.99
2022-11-08T03:50:14.779Z,96.76
2022-11-08T03:52:46.332Z,96.47
2022-11-08T03:55:13.281Z,96.25
2022-11-08T03:57:40.968Z,97.22
2022-11-08T04:00:09.628Z,96.81
2022-11-08T04:02:36.185Z,96.69
2022-11-08T04:05:02.753Z,96.72
2022-11-08T04:07:29.333Z,96.69
2022-11-08T04:09:55.955Z,97.22
2022-11-08T04:12:41.532Z,97.05
2022-11-08T04:15:16.316Z,96.77
2022-11-08T04:18:02.885Z,96.07
2022-11-08T04:20:48.430Z,96.08
2022-11-08T04:23:16.289Z,96.60
2022-11-08T04:25:43.650Z,96.23
2022-11-08T04:28:10.764Z,95.93
2022-11-08T04:30:38.062Z,96.40
2022-11-08T04:33:05.428Z,95.97
2022-11-08T04:35:32.269Z,95.72
2022-11-08T04:38:00.559Z,96.26
2022-11-08T04:40:29.817Z,96.05
2022-11-08T04:42:56.339Z,96.16
2022-11-08T04:45:22.837Z,96.14
2022-11-08T04:47:49.297Z,96.18
2022-11-08T04:50:16.474Z,96.00
2022-11-08T04:52:42.914Z,95.58
2022-11-08T04:55:09.819Z,95.57
2022-11-08T04:57:36.251Z,96.06
2022-11-08T05:00:02.993Z,95.81
2022-11-08T05:02:29.573Z,95.94
2022-11-08T05:04:56.149Z,95.38
2022-11-08T05:07:22.603Z,95.24
2022-11-08T05:09:49.250Z,95.87
2022-11-08T05:12:15.788Z,95.44
2022-11-08T05:14:42.327Z,94.83
2022-11-08T05:17:08.970Z,95.03
2022-11-08T05:19:54.085Z,94.83
2022-11-08T05:22:39.312Z,95.18
2022-11-08T05:25:06.436Z,94.66
2022-11-08T05:27:34.205Z,94.08
2022-11-08T05:30:00.860Z,94.65
2022-11-08T05:32:27.271Z,94.24
2022-11-08T05:34:53.841Z,93.96
2022-11-08T05:37:20.277Z,94.23
2022-11-08T05:39:46.713Z,93.86
2022-11-08T05:42:13.173Z,93.59
2022-11-08T05:44:39.668Z,93.60
2022-11-08T05:47:06.109Z,93.98
2022-11-08T05:49:32.542Z,93.23
2022-11-08T05:51:59.146Z,93.41
2022-11-08T05:54:25.592Z,93.03
2022-11-08T05:56:52.047Z,93.06
2022-11-08T05:59:18.660Z,93.24
2022-11-08T06:01:45.117Z,92.99
2022-11-08T06:04:11.924Z,93.00
2022-11-08T06:06:38.401Z,92.60
2022-11-08T06:09:04.807Z,92.56
2022-11-08T06:11:31.257Z,92.89
2022-11-08T06:13:57.723Z,92.31
2022-11-08T06:16:25.273Z,92.06
2022-11-08T06:18:51.982Z,92.54
2022-11-08T06:21:20.557Z,91.91
2022-11-08T06:23:47.647Z,91.72
2022-11-08T06:26:14.560Z,91.80
2022-11-08T06:28:41.173Z,92.39
2022-11-08T06:31:08.060Z,91.67
2022-11-08T06:33:35.157Z,92.29
2022-11-08T06:36:02.124Z,91.63
2022-11-08T06:38:28.684Z,91.72
2022-11-08T06:40:58.569Z,91.66
2022-11-08T06:43:25.178Z,91.29
2022-11-08T06:45:51.775Z,91.62
2022-11-08T06:48:19.548Z,91.12
2022-11-08T06:50:45.983Z,91.54
2022-11-08T06:53:13.957Z,90.81
2022-11-08T06:55:41.106Z,90.85
2022-11-08T06:58:07.609Z,91.01
2022-11-08T07:00:34.038Z,90.92
2022-11-08T07:03:02.373Z,90.84
2022-11-08T07:05:30.563Z,90.75
2022-11-08T07:07:58.676Z,90.35
2022-11-08T07:10:26.988Z,89.99
2022-11-08T07:13:00.700Z,90.23
2022-11-08T07:15:27.408Z,90.56
2022-11-08T07:17:53.898Z,89.82
2022-11-08T07:20:22.323Z,89.60
2022-11-08T07:22:48.758Z,89.82
2022-11-08T07:25:15.329Z,89.70
2022-11-08T07:27:41.761Z,89.47
2022-11-08T07:30:08.789Z,89.17
2022-11-08T07:32:35.293Z,88.93
2022-11-08T07:35:01.721Z,88.74
2022-11-08T07:37:28.113Z,88.47
2022-11-08T07:39:54.550Z,88.09
2022-11-08T07:42:20.966Z,87.59
2022-11-08T07:44:47.479Z,87.96
2022-11-08T07:47:13.891Z,87.05
2022-11-08T07:49:40.466Z,86.93
2022-11-08T07:52:06.898Z,87.04
2022-11-08T07:54:33.414Z,86.63
2022-11-08T07:56:59.887Z,86.38
2022-11-08T07:59:26.362Z,85.89
2022-11-08T08:01:52.927Z,85.45
2022-11-08T08:04:19.555Z,85.54
2022-11-08T08:06:46.019Z,85.07
2022-11-08T08:09:12.508Z,84.47
2022-11-08T08:11:39.052Z,85.10
2022-11-08T08:14:05.476Z,84.18
2022-11-08T08:16:31.993Z,84.27
2022-11-08T08:18:58.506Z,83.85
2022-11-08T08:21:24.969Z,83.81
2022-11-08T08:23:51.431Z,83.32
2022-11-08T08:26:17.936Z,84.03
2022-11-08T08:28:44.345Z,83.31
2022-11-08T08:31:10.762Z,83.25
2022-11-08T08:33:38.021Z,82.37
2022-11-08T08:36:05.055Z,83.07
2022-11-08T08:38:32.907Z,82.31
2022-11-08T08:41:00.674Z,82.05
2022-11-08T08:43:28.365Z,82.21
2022-11-08T08:45:58.652Z,81.78
2022-11-08T08:48:25.078Z,81.96
2022-11-08T08:50:51.517Z,82.01
2022-11-08T08:53:18.278Z,81.77
2022-11-08T08:55:45.051Z,81.61
2022-11-08T08:58:11.659Z,81.54
2022-11-08T09:03:24.562Z,81.44
2022-11-08T09:05:51.079Z,81.03
2022-11-08T09:08:17.525Z,80.49
2022-11-08T09:10:43.989Z,80.65
2022-11-08T09:13:10.781Z,80.35
2022-11-08T09:15:39.350Z,80.48
2022-11-08T09:18:06.370Z,79.65
2022-11-08T09:20:32.868Z,79.50
2022-11-08T09:23:03.478Z,80.10
2022-11-08T09:25:30.420Z,79.81
2022-11-08T09:27:56.918Z,79.75
2022-11-08T09:30:23.400Z,79.20
2022-11-08T09:33:01.994Z,79.64
2022-11-08T09:35:30.009Z,79.48
2022-11-08T09:37:56.721Z,79.32
2022-11-08T09:40:32.754Z,79.34
2022-11-08T09:43:30.148Z,78.72
2022-11-08T09:45:57.489Z,78.64
2022-11-08T09:48:31.943Z,78.59
2022-11-08T09:51:03.577Z,78.71
2022-11-08T09:53:54.379Z,78.82
2022-11-08T09:56:31.425Z,78.76
2022-11-08T09:59:02.264Z,78.93
2022-11-08T10:01:36.566Z,77.99
2022-11-08T10:04:08.998Z,77.79
2022-11-08T10:06:45.158Z,77.27
2022-11-08T10:09:36.588Z,76.88
2022-11-08T10:12:09.237Z,76.77
2022-11-08T10:15:14.603Z,77.06
2022-11-08T10:18:07.502Z,77.32
2022-11-08T10:21:05.894Z,77.07
2022-11-08T10:23:43.333Z,76.83
2022-11-08T10:26:18.084Z,76.51
2022-11-08T10:29:07.732Z,76.15
2022-11-08T10:31:37.412Z,75.58
2022-11-08T10:34:12.636Z,75.59
2022-11-08T10:36:43.984Z,75.81
2022-11-08T10:39:28.263Z,76.22
2022-11-08T10:42:05.363Z,75.96
2022-11-08T10:44:33.786Z,75.70
2022-11-08T10:47:03.132Z,75.90
2022-11-08T10:49:30.960Z,75.95
2022-11-08T10:52:00.088Z,75.38
2022-11-08T10:54:50.735Z,76.03
2022-11-08T10:57:32.417Z,76.08
2022-11-08T11:00:20.829Z,76.56
2022-11-08T11:02:59.693Z,75.88
2022-11-08T11:05:30.186Z,75.24
2022-11-08T11:08:03.660Z,74.97
2022-11-08T11:10:47.518Z,74.38
2022-11-08T11:13:22.133Z,74.38
2022-11-08T11:15:58.537Z,74.60
2022-11-08T11:18:31.136Z,74.62
2022-11-08T11:21:14.038Z,74.43
2022-11-08T11:24:06.184Z,73.74
2022-11-08T11:26:54.230Z,73.61
2022-11-08T11:29:26.444Z,73.84
2022-11-08T11:31:54.436Z,73.45
2022-11-08T11:34:35.122Z,74.13
2022-11-08T11:37:10.782Z,74.10
2022-11-08T11:39:51.233Z,73.65
2022-11-08T11:45:21.482Z,73.66
2022-11-08T11:48:02.369Z,72.73
2022-11-08T11:50:37.070Z,73.10
2022-11-08T11:53:22.865Z,73.42
2022-11-08T11:55:53.826Z,73.67
2022-11-08T11:58:59.065Z,74.04
2022-11-08T12:45:47.303Z,72.59
2022-11-08T12:57:16.716Z,72.22
2022-11-08T13:24:42.272Z,72.73
2022-11-08T14:03:02.480Z,72.78
2022-11-08T14:05:31.573Z,72.72
2022-11-08T14:28:10.470Z,74.21
2022-11-08T14:43:22.342Z,75.22
2022-11-08T14:46:00.638Z,75.93
2022-11-08T15:04:15.372Z,75.77
2022-11-08T15:15:15.521Z,76.00
2022-11-08T15:18:15.576Z,76.21
2022-11-08T15:29:11.569Z,76.57
2022-11-08T15:47:49.481Z,77.61
2022-11-08T16:02:25.945Z,78.67
2022-11-08T16:08:42.972Z,79.35
2022-11-08T16:11:18.549Z,79.66
2022-11-08T16:13:45.077Z,79.41
2022-11-08T16:16:14.164Z,79.55
2022-11-08T16:18:41.705Z,79.61
2022-11-08T16:21:12.776Z,79.81
2022-11-08T16:23:39.580Z,80.31
2022-11-08T16:26:07.557Z,80.28
2022-11-08T16:28:37.977Z,80.27
2022-11-08T16:31:07.774Z,80.85
2022-11-08T16:33:35.563Z,81.06
2022-11-08T16:36:09.548Z,81.05
2022-11-08T16:38:37.723Z,81.03
2022-11-08T16:41:05.657Z,81.49
2022-11-08T16:43:32.542Z,81.31
2022-11-08T16:46:06.369Z,81.29
2022-11-08T16:48:35.918Z,81.54
2022-11-08T16:51:05.056Z,81.80
2022-11-08T16:53:32.428Z,81.92
2022-11-08T16:55:59.477Z,81.78
2022-11-08T16:58:27.960Z,81.79
2022-11-08T17:00:55.745Z,81.94
2022-11-08T17:03:24.529Z,82.00
2022-11-08T17:05:52.185Z,81.95
2022-11-08T17:08:19.090Z,81.95
2022-11-08T17:10:46.051Z,82.15
2022-11-08T17:13:17.812Z,82.39
2022-11-08T17:16:47.330Z,82.16
2022-11-08T17:27:23.534Z,81.48
2022-11-08T17:44:16.282Z,82.53
2022-11-08T18:08:12.776Z,84.05
2022-11-08T18:19:25.352Z,83.53
2022-11-08T18:26:14.490Z,83.64
2022-11-08T18:34:49.119Z,83.88
2022-11-08T18:38:57.265Z,83.58
2022-11-08T18:41:26.538Z,83.43
2022-11-08T18:43:53.186Z,83.21
2022-11-08T18:46:22.109Z,83.96
2022-11-08T18:52:49.675Z,83.67
2022-11-08T19:03:06.186Z,84.02
2022-11-08T19:05:43.559Z,83.99
2022-11-08T19:08:09.991Z,84.27
2022-11-08T19:10:36.427Z,84.40
2022-11-08T19:13:03.244Z,84.15
2022-11-08T19:15:30.063Z,84.73
2022-11-08T19:17:57.698Z,84.62
2022-11-08T19:20:25.356Z,84.65
2022-11-08T19:27:43.284Z,84.67
2022-11-08T19:52:23.463Z,85.44
2022-11-08T19:54:50.330Z,86.02
2022-11-08T19:57:16.842Z,86.09
2022-11-08T19:59:51.578Z,85.73
2022-11-08T20:25:44.786Z,86.67
2022-11-08T20:29:11.304Z,86.63
2022-11-08T20:31:38.799Z,86.55
2022-11-08T20:37:46.145Z,86.60
2022-11-08T20:40:13.836Z,86.73
2022-11-08T20:42:40.526Z,86.82
2022-11-08T20:45:10.690Z,86.71
2022-11-08T20:47:53.937Z,86.92
2022-11-08T20:50:20.376Z,86.67
2022-11-08T20:52:46.802Z,86.75
2022-11-08T20:55:13.390Z,86.75
2022-11-08T20:57:39.809Z,87.03
2022-11-08T21:00:13.416Z,87.13
2022-11-08T21:02:47.924Z,87.30
2022-11-08T21:05:14.488Z,87.41
2022-11-08T21:10:42.266Z,87.86
2022-11-08T21:13:09.941Z,87.87
2022-11-08T21:15:51.432Z,88.23
2022-11-08T21:18:20.531Z,88.02
2022-11-08T21:20:52.639Z,88.16
2022-11-08T21:23:19.485Z,88.47
2022-11-08T21:25:46.256Z,88.59
2022-11-08T21:28:12.783Z,88.53
2022-11-08T21:34:45.777Z,88.84
2022-11-08T21:42:10.540Z,88.78
2022-11-08T21:48:36.537Z,89.22
2022-11-08T21:55:03.847Z,88.95
2022-11-08T21:57:30.492Z,89.56
2022-11-08T21:59:56.913Z,89.56
2022-11-08T22:06:48.061Z,89.43
2022-11-08T22:09:14.639Z,89.85
2022-11-08T22:11:41.910Z,89.72
2022-11-08T22:25:52.523Z,90.06
2022-11-08T22:28:19.174Z,90.01
2022-11-08T22:30:53.073Z,90.07
2022-11-08T22:41:19.840Z,90.24
2022-11-08T22:44:13.426Z,90.33
2022-11-08T22:50:32.666Z,90.42
2022-11-08T22:56:49.699Z,90.71
2022-11-08T22:59:16.160Z,90.93
2022-11-08T23:01:42.615Z,90.67
2022-11-08T23:04:11.352Z,90.87
2022-11-08T23:07:16.715Z,90.64
2022-11-08T23:09:43.233Z,90.87
2022-11-08T23:28:14.350Z,90.12
2022-11-08T23:39:59.293Z,89.44
2022-11-08T23:47:00.417Z,89.29
2022-11-08T23:49:27.636Z,89.13
2022-11-08T23:51:54.445Z,89.32
2022-11-08T23:54:21.491Z,89.18
2022-11-08T23:56:48.064Z,88.89
2022-11-08T23:59:15.635Z,89.20
